ADDS METAR Data INFO
IDs: Format: Raw Decoded Include TAF

Data at: 1147 UTC 25 Jun 2018

KVCT 251101Z AUTO 16009KT 9SM SCT021 27/24 A2993 RMK AO2 T02670244
KVCT 251051Z AUTO 16009KT 8SM BKN022 27/24 A2992 RMK AO2 SLP130 T02670244
KVCT 250951Z AUTO 16012KT 8SM FEW018 BKN027 OVC043 27/24 A2990 RMK AO2 SLP123 T02670244
KVCT 250934Z AUTO 15009KT 8SM FEW015 OVC029 26/24 A2991 RMK AO2 T02610244
KVCT 250851Z AUTO 14010KT 8SM FEW020 OVC030 26/24 A2991 RMK AO2 SLP127 T02610244 56004
KVCT 250751Z AUTO 13006KT 9SM FEW019 BKN032 OVC047 26/24 A2992 RMK AO2 SLP130 T02610239
KVCT 250708Z AUTO 13006KT 10SM FEW026 OVC030 26/24 A2993 RMK AO2 T02560239
KVCT 250651Z AUTO 14007KT 10SM OVC029 26/24 A2991 RMK AO2 SLP127 T02560239
KVCT 250616Z AUTO 14010KT 10SM FEW021 BKN029 26/24 A2992 RMK AO2 T02610239
KVCT 250551Z AUTO 15008KT 10SM FEW028 26/24 A2992 RMK AO2 SLP130 T02610239 10306 20261 403390261 51012
KVCT 250451Z AUTO 15010KT 10SM FEW025 BKN035 26/24 A2992 RMK AO2 SLP130 T02610239
KVCT 250351Z AUTO 14011KT 10SM FEW026 27/24 A2991 RMK AO2 SLP128 T02670239
KVCT 250251Z AUTO 13010KT 10SM CLR 27/24 A2989 RMK AO2 SLP119 T02670239 53011
KVCT 250151Z 14012KT 10SM CLR 28/23 A2987 RMK AO2 SLP113 T02780233
KVCT 250051Z 15011KT 10SM CLR 29/23 A2985 RMK AO2 SLP106 T02940228
KVCT 242351Z 14016KT 10SM SCT033 31/23 A2986 RMK AO2 SLP108 T03060228 10339 20300 55005
KVCT 242251Z 14017G21KT 10SM BKN038 32/22 A2985 RMK AO2 SLP108 T03170222
KVCT 242151Z 17015G21KT 10SM SCT037 33/22 A2987 RMK AO2 SLP111 T03330222
KVCT 242051Z 17019KT 10SM FEW038 SCT045 34/23 A2987 RMK AO2 SLP113 T03390228 58008
KVCT 241951Z 15019G27KT 10SM SCT033 SCT048 33/23 A2988 RMK AO2 PK WND 15030/1907 SLP116 T03330233
KVCT 241851Z 16019KT 10SM SCT038 SCT050 33/23 A2989 RMK AO2 PK WND 14026/1806 SLP120 T03330233
KVCT 241751Z 15019G25KT 10SM SCT032 33/23 A2990 RMK AO2 SLP121 T03330233 10333 20267 53009
KVCT 241651Z 17017G24KT 10SM SCT033 BKN042 33/23 A2989 RMK AO2 SLP117 T03330228
KVCT 241551Z 17016G22KT 10SM SCT034 32/23 A2987 RMK AO2 SLP114 T03220228
KVCT 241451Z 17014G23KT 10SM BKN030 30/23 A2987 RMK AO2 SLP113 T03000228 50001
KVCT 241351Z 20013G20KT 10SM FEW014 SCT021 BKN030 29/24 A2988 RMK AO2 SLP115 T02890239
KVCT 241258Z 18009KT 9SM SCT017 OVC027 27/24 A2987 RMK AO2 T02720244
KVCT 241251Z 18011KT 9SM SCT029 28/24 A2987 RMK AO2 SLP112 T02780244
KVCT 241158Z 15008KT 8SM SCT029 27/24 A2986 RMK AO2 T02670244
KVCT 241151Z 16009KT 8SM BKN030 27/24 A2987 RMK AO2 SLP112 T02670244 10278 20261 53006
KVCT 241051Z AUTO 17010KT 10SM FEW029 27/24 A2986 RMK AO2 SLP109 T02670239
KVCT 241037Z AUTO 17009KT 10SM SCT029 27/24 A2986 RMK AO2 T02670239
KVCT 240951Z AUTO 17010KT 8SM FEW020 OVC027 27/24 A2986 RMK AO2 SLP109 T02670244
KVCT 240929Z AUTO 17009KT 8SM BKN023 27/24 A2986 RMK AO2 T02670239
KVCT 240851Z AUTO 17013KT 7SM FEW021 27/24 A2985 RMK AO2 SLP105 T02670244 58006
KVCT 240751Z AUTO 17014KT 8SM FEW019 SCT026 BKN033 27/24 A2986 RMK AO2 SLP109 T02720244
KVCT 240651Z AUTO 17013G20KT 9SM SCT017 SCT022 OVC030 27/24 A2988 RMK AO2 SLP115 T02720244
KVCT 240551Z AUTO 15009KT 8SM SCT017 OVC025 27/25 A2987 RMK AO2 SLP111 60000 T02720250 10311 20267 403440244 53018
KVCT 240451Z AUTO 15010KT 8SM SCT019 OVC024 27/25 A2985 RMK AO2 SLP104 T02720250
KVCT 240415Z AUTO 15012KT 8SM BKN020 27/25 A2984 RMK AO2 T02670250
KVCT 240351Z AUTO 15012KT 8SM CLR 27/25 A2983 RMK AO2 SLP098 T02670250
KVCT 240314Z AUTO 15013KT 8SM FEW023 27/25 A2982 RMK AO2 T02720250
KVCT 240251Z 15011KT 8SM BKN024 27/25 A2981 RMK AO2 SLP094 60000 T02720250 53007
KVCT 240151Z 14015KT 9SM FEW017 OVC028 28/24 A2980 RMK AO2 SLP090 T02830244
KVCT 240138Z 14014G20KT 8SM FEW019 OVC029 28/24 A2979 RMK AO2 T02830244
KVCT 240051Z 15017KT 8SM SCT022 SCT028 OVC034 29/24 A2979 RMK AO2 RAE14 SLP086 P0000 T02890244
KVCT 240027Z 15019KT 8SM BKN022 BKN034 30/24 A2979 RMK AO2 RAE14 P0000 T03000244
KVCT 232351Z 16016KT 9SM -RA FEW038 31/24 A2979 RMK AO2 RAB26 SLP085 P0000 60000 T03060244 10344 20306 56006